createdAt,value
2018-11-13T00:01:35.734Z,8.43
2018-11-13T00:04:05.230Z,8.53
2018-11-13T00:06:35.633Z,8.27
2018-11-13T00:09:06.430Z,7.83
2018-11-13T00:11:36.144Z,8.90
2018-11-13T00:14:06.046Z,8.57
2018-11-13T00:16:35.511Z,7.87
2018-11-13T00:19:04.912Z,7.83
2018-11-13T00:21:34.363Z,7.90
2018-11-13T00:24:03.725Z,9.13
2018-11-13T00:26:33.659Z,8.13
2018-11-13T00:29:03.256Z,8.30
2018-11-13T00:31:32.972Z,8.47
2018-11-13T00:34:02.352Z,8.17
2018-11-13T00:36:32.028Z,8.73
2018-11-13T00:39:01.331Z,7.87
2018-11-13T00:41:31.825Z,7.97
2018-11-13T00:44:01.221Z,8.83
2018-11-13T00:46:30.679Z,8.27
2018-11-13T00:49:00.099Z,8.40
2018-11-13T00:51:29.563Z,7.97
2018-11-13T00:53:58.861Z,8.77
2018-11-13T00:56:28.171Z,8.30
2018-11-13T00:58:57.454Z,7.90
2018-11-13T01:01:26.725Z,8.60
2018-11-13T01:03:55.998Z,8.10
2018-11-13T01:06:25.274Z,8.13
2018-11-13T01:08:54.526Z,8.77
2018-11-13T01:11:23.767Z,8.90
2018-11-13T01:13:53.002Z,8.33
2018-11-13T01:16:22.291Z,9.20
2018-11-13T01:18:51.565Z,8.57
2018-11-13T01:21:20.827Z,7.80
2018-11-13T01:23:50.126Z,8.27
2018-11-13T01:26:19.380Z,9.03
2018-11-13T01:28:48.649Z,9.30
2018-11-13T01:31:17.944Z,8.20
2018-11-13T01:33:47.183Z,8.07
2018-11-13T01:36:16.426Z,9.10
2018-11-13T01:38:45.672Z,8.13
2018-11-13T01:41:15.034Z,9.23
2018-11-13T01:43:44.315Z,8.93
2018-11-13T01:46:13.787Z,8.17
2018-11-13T01:48:43.068Z,7.83
2018-11-13T01:51:12.388Z,8.70
2018-11-13T01:53:41.733Z,9.20
2018-11-13T01:56:11.073Z,8.80
2018-11-13T01:58:40.327Z,9.07
2018-11-13T02:01:09.622Z,8.00
2018-11-13T02:03:38.941Z,8.10
2018-11-13T02:06:08.249Z,8.07
2018-11-13T02:08:37.551Z,8.43
2018-11-13T02:11:06.861Z,8.60
2018-11-13T02:13:36.159Z,8.67
2018-11-13T02:16:05.860Z,7.80
2018-11-13T02:18:35.170Z,9.00
2018-11-13T02:21:04.509Z,8.57
2018-11-13T02:23:33.798Z,8.10
2018-11-13T02:26:03.068Z,7.50
2018-11-13T02:28:32.386Z,7.47
2018-11-13T02:31:02.116Z,8.73
2018-11-13T02:33:32.023Z,8.17
2018-11-13T02:36:01.304Z,7.50
2018-11-13T02:38:30.637Z,8.20
2018-11-13T02:40:59.931Z,7.73
2018-11-13T02:43:29.270Z,9.13
2018-11-13T02:45:58.546Z,8.17
2018-11-13T02:48:27.842Z,7.93
2018-11-13T02:50:57.118Z,8.40
2018-11-13T02:53:26.399Z,7.77
2018-11-13T02:55:55.702Z,8.50
2018-11-13T02:58:24.990Z,8.60
2018-11-13T03:00:54.302Z,8.80
2018-11-13T03:03:23.575Z,9.00
2018-11-13T03:05:52.910Z,8.53
2018-11-13T03:08:22.174Z,9.23
2018-11-13T03:10:51.459Z,8.70
2018-11-13T03:13:20.734Z,8.50
2018-11-13T03:15:50.056Z,8.27
2018-11-13T03:18:19.323Z,9.30
2018-11-13T03:20:48.659Z,8.63
2018-11-13T03:23:17.931Z,8.80
2018-11-13T03:25:47.202Z,9.10
2018-11-13T03:28:16.519Z,9.13
2018-11-13T03:30:45.810Z,8.63
2018-11-13T03:33:15.120Z,8.47
2018-11-13T03:35:44.414Z,7.70
2018-11-13T03:38:13.717Z,9.00
2018-11-13T03:40:42.998Z,8.97
2018-11-13T03:43:12.273Z,7.80
2018-11-13T03:45:41.631Z,8.20
2018-11-13T03:48:10.874Z,8.60
2018-11-13T03:50:40.147Z,8.43
2018-11-13T03:53:09.443Z,8.20
2018-11-13T03:55:38.726Z,8.13
2018-11-13T03:58:08.043Z,8.67
2018-11-13T04:00:37.324Z,8.93
2018-11-13T04:03:06.662Z,8.83
2018-11-13T04:05:35.942Z,8.40
2018-11-13T04:08:05.269Z,8.30
2018-11-13T04:10:34.572Z,7.90
2018-11-13T04:13:03.847Z,8.93
2018-11-13T04:15:33.215Z,9.00
2018-11-13T04:18:02.527Z,7.83
2018-11-13T04:20:31.803Z,8.10
2018-11-13T04:23:01.079Z,8.23
2018-11-13T04:25:30.392Z,8.33
2018-11-13T04:28:00.603Z,7.57
2018-11-13T04:30:29.921Z,8.70
2018-11-13T04:32:59.219Z,8.10
2018-11-13T04:35:28.539Z,8.27
2018-11-13T04:37:57.866Z,7.73
2018-11-13T04:40:27.131Z,8.27
2018-11-13T04:42:56.387Z,7.90
2018-11-13T04:45:26.243Z,8.67
2018-11-13T04:47:55.523Z,7.43
2018-11-13T04:50:24.799Z,7.73
2018-11-13T04:52:54.107Z,7.77
2018-11-13T04:55:23.434Z,8.33
2018-11-13T04:57:52.824Z,7.53
2018-11-13T05:00:23.385Z,7.63
2018-11-13T05:02:52.789Z,7.73
2018-11-13T05:05:22.732Z,7.60
2018-11-13T05:07:54.249Z,7.40
2018-11-13T05:10:25.302Z,7.10
2018-11-13T05:12:54.595Z,7.77
2018-11-13T05:15:23.857Z,7.53
2018-11-13T05:17:53.114Z,8.10
2018-11-13T05:20:22.360Z,7.60
2018-11-13T05:22:51.706Z,7.23
2018-11-13T05:25:21.690Z,7.80
2018-11-13T05:27:51.007Z,7.43
2018-11-13T05:30:21.633Z,7.10
2018-11-13T05:32:51.116Z,7.30
2018-11-13T05:35:21.474Z,7.00
2018-11-13T05:37:50.783Z,7.00
2018-11-13T05:40:22.319Z,8.10
2018-11-13T05:42:51.676Z,7.37
2018-11-13T05:45:22.460Z,7.20
2018-11-13T05:47:51.719Z,8.20
2018-11-13T05:50:21.143Z,7.43
2018-11-13T05:52:51.767Z,7.73
2018-11-13T05:55:21.095Z,7.13
2018-11-13T05:57:50.431Z,7.37
2018-11-13T06:00:30.100Z,7.07
2018-11-13T06:02:59.667Z,7.30
2018-11-13T06:05:28.963Z,7.10
2018-11-13T06:07:58.527Z,6.93
2018-11-13T06:10:27.808Z,7.07
2018-11-13T06:12:57.084Z,6.27
2018-11-13T06:15:26.408Z,6.53
2018-11-13T06:17:55.723Z,7.47
2018-11-13T06:20:25.038Z,6.37
2018-11-13T06:22:54.366Z,6.13
2018-11-13T06:25:23.673Z,6.27
2018-11-13T06:27:52.996Z,6.33
2018-11-13T06:30:23.677Z,6.27
2018-11-13T06:32:53.273Z,6.50
2018-11-13T06:35:22.616Z,6.27
2018-11-13T06:37:51.909Z,5.63
2018-11-13T06:40:21.200Z,6.83
2018-11-13T06:42:51.207Z,6.03
2018-11-13T06:45:21.984Z,5.63
2018-11-13T06:47:51.605Z,5.93
2018-11-13T06:50:20.934Z,7.17
2018-11-13T06:52:50.852Z,5.90
2018-11-13T06:55:27.237Z,6.53
2018-11-13T06:57:56.535Z,6.03
2018-11-13T07:00:25.835Z,5.90
2018-11-13T07:02:55.078Z,6.50
2018-11-13T07:05:24.363Z,5.53
2018-11-13T07:07:53.654Z,5.90
2018-11-13T07:10:25.042Z,7.00
2018-11-13T07:12:54.966Z,8.10
2018-11-13T07:15:26.640Z,9.57
2018-11-13T07:17:58.169Z,9.30
2018-11-13T07:20:28.713Z,10.83
2018-11-13T07:22:58.027Z,8.73
2018-11-13T07:25:27.438Z,8.80
2018-11-13T07:27:56.693Z,7.67
2018-11-13T07:30:28.345Z,8.23
2018-11-13T07:32:57.879Z,8.20
2018-11-13T07:35:27.182Z,6.83
2018-11-13T07:37:58.666Z,7.60
2018-11-13T07:40:27.995Z,7.73
2018-11-13T07:42:57.394Z,7.77
2018-11-13T07:45:26.724Z,7.80
2018-11-13T07:47:56.063Z,7.13
2018-11-13T07:50:25.288Z,7.30
2018-11-13T07:52:54.569Z,6.37
2018-11-13T07:55:23.902Z,7.30
2018-11-13T07:57:53.173Z,6.90
2018-11-13T08:00:23.812Z,6.87
2018-11-13T08:02:54.401Z,6.80
2018-11-13T08:05:23.714Z,6.90
2018-11-13T08:07:53.000Z,6.73
2018-11-13T08:10:24.291Z,6.53
2018-11-13T08:12:56.181Z,6.73
2018-11-13T08:15:26.815Z,6.33
2018-11-13T08:17:56.088Z,6.50
2018-11-13T08:20:25.449Z,7.23
2018-11-13T08:22:55.288Z,6.10
2018-11-13T08:25:24.591Z,6.13
2018-11-13T08:27:53.941Z,6.63
2018-11-13T08:30:23.195Z,7.07
2018-11-13T08:32:52.486Z,6.47
2018-11-13T08:35:21.779Z,6.47
2018-11-13T08:37:51.027Z,5.87
2018-11-13T08:40:20.312Z,5.97
2018-11-13T08:42:49.638Z,6.43
2018-11-13T08:45:19.046Z,6.17
2018-11-13T08:47:48.298Z,6.67
2018-11-13T08:50:17.693Z,6.03
2018-11-13T08:52:47.660Z,6.30
2018-11-13T08:55:17.139Z,6.17
2018-11-13T08:57:46.535Z,6.07
2018-11-13T09:00:17.171Z,6.00
2018-11-13T09:02:47.075Z,5.57
2018-11-13T09:05:16.560Z,5.37
2018-11-13T09:07:45.901Z,5.00
2018-11-13T09:10:16.523Z,5.93
2018-11-13T09:12:46.231Z,6.13
2018-11-13T09:15:16.946Z,5.67
2018-11-13T09:17:46.239Z,5.30
2018-11-13T09:20:16.782Z,5.53
2018-11-13T09:22:46.057Z,5.20
2018-11-13T09:25:17.358Z,5.47
2018-11-13T09:27:46.637Z,5.30
2018-11-13T09:30:17.517Z,5.00
2018-11-13T09:32:47.225Z,5.13
2018-11-13T09:35:17.340Z,4.93
2018-11-13T09:37:46.571Z,5.43
2018-11-13T09:40:17.527Z,5.90
2018-11-13T09:42:47.964Z,5.10
2018-11-13T09:45:18.034Z,4.63
2018-11-13T09:47:47.388Z,4.93
2018-11-13T09:50:18.769Z,4.53
2018-11-13T09:52:49.151Z,4.43
2018-11-13T09:55:19.823Z,4.90
2018-11-13T09:57:49.114Z,4.70
2018-11-13T10:00:28.300Z,5.00
2018-11-13T10:03:00.422Z,5.17
2018-11-13T10:05:29.232Z,4.33
2018-11-13T10:07:58.758Z,4.73
2018-11-13T10:10:28.268Z,4.90
2018-11-13T10:12:57.542Z,4.57
2018-11-13T10:15:28.309Z,4.90
2018-11-13T10:17:57.755Z,4.70
2018-11-13T10:20:26.972Z,4.40
2018-11-13T10:22:57.315Z,4.33
2018-11-13T10:25:26.599Z,5.00
2018-11-13T10:27:55.876Z,5.60
2018-11-13T10:30:25.725Z,4.83
2018-11-13T10:32:55.441Z,4.50
2018-11-13T10:35:25.896Z,4.33
2018-11-13T10:37:55.167Z,4.57
2018-11-13T10:40:24.623Z,5.07
2018-11-13T10:42:54.180Z,5.43
2018-11-13T10:45:26.859Z,5.00
2018-11-13T10:47:56.482Z,4.57
2018-11-13T10:50:26.745Z,4.73
2018-11-13T10:52:56.300Z,4.63
2018-11-13T10:55:25.575Z,4.63
2018-11-13T10:57:54.874Z,5.33
2018-11-13T11:00:29.160Z,5.60
2018-11-13T11:03:03.657Z,6.13
2018-11-13T11:05:32.935Z,5.23
2018-11-13T11:08:02.203Z,6.60
2018-11-13T11:10:31.511Z,7.20
2018-11-13T11:13:00.945Z,6.93
2018-11-13T11:15:30.110Z,6.10
2018-11-13T11:17:59.423Z,5.77
2018-11-13T11:20:28.765Z,6.27
2018-11-13T11:22:58.078Z,6.50
2018-11-13T11:25:27.424Z,6.40
2018-11-13T11:27:56.725Z,5.43
2018-11-13T11:30:25.944Z,6.63
2018-11-13T11:32:56.653Z,6.20
2018-11-13T11:35:25.977Z,7.03
2018-11-13T11:37:55.300Z,6.30
2018-11-13T11:40:24.757Z,6.43
2018-11-13T11:42:54.183Z,6.70
2018-11-13T11:45:23.645Z,6.93
2018-11-13T11:47:53.076Z,8.50
2018-11-13T11:50:22.375Z,8.13
2018-11-13T11:52:51.674Z,9.20
2018-11-13T11:55:20.972Z,8.13
2018-11-13T11:57:50.320Z,8.57
2018-11-13T12:00:24.689Z,6.97
2018-11-13T12:02:53.943Z,8.23
2018-11-13T12:05:23.215Z,6.97
2018-11-13T12:07:52.654Z,8.13
2018-11-13T12:10:21.955Z,18.37
2018-11-13T12:12:52.592Z,20.13
2018-11-13T12:15:21.917Z,22.93
2018-11-13T12:17:51.251Z,24.63
2018-11-13T12:20:20.580Z,26.87
2018-11-13T12:22:49.873Z,23.27
2018-11-13T12:25:20.501Z,21.80
2018-11-13T12:27:49.821Z,21.20
2018-11-13T12:30:21.424Z,21.27
2018-11-13T12:32:51.523Z,22.07
2018-11-13T12:35:21.757Z,21.67
2018-11-13T12:37:51.064Z,20.27
2018-11-13T12:40:21.795Z,18.87
2018-11-13T12:42:51.386Z,19.03
2018-11-13T12:45:21.056Z,19.47
2018-11-13T12:47:50.355Z,18.20
2018-11-13T12:50:20.421Z,17.13
2018-11-13T12:52:49.730Z,16.67
2018-11-13T12:55:23.942Z,15.67
2018-11-13T12:57:53.524Z,16.60
2018-11-13T13:00:26.265Z,15.53
2018-11-13T13:02:55.555Z,15.17
2018-11-13T13:05:24.910Z,15.07
2018-11-13T13:07:54.165Z,14.93
2018-11-13T13:10:23.589Z,13.00
2018-11-13T13:12:52.913Z,13.40
2018-11-13T13:15:22.286Z,13.67
2018-11-13T13:17:51.611Z,12.87
2018-11-13T13:20:22.355Z,14.20
2018-11-13T13:22:52.171Z,13.10
2018-11-13T13:25:22.890Z,12.30
2018-11-13T13:27:52.455Z,11.60
2018-11-13T13:30:23.031Z,11.77
2018-11-13T13:32:53.260Z,12.03
2018-11-13T13:36:01.570Z,11.83
2018-11-13T13:38:32.119Z,11.77
2018-11-13T13:41:02.328Z,10.97
2018-11-13T13:43:32.334Z,11.20
2018-11-13T13:46:01.844Z,11.63
2018-11-13T13:48:31.091Z,11.53
2018-11-13T13:51:00.349Z,10.83
2018-11-13T13:53:29.763Z,10.87
2018-11-13T13:55:59.111Z,10.50
2018-11-13T13:58:28.803Z,11.93
2018-11-13T14:00:58.766Z,9.90
2018-11-13T14:03:27.952Z,10.17
2018-11-13T14:05:57.645Z,10.00
2018-11-13T14:08:26.995Z,11.13
2018-11-13T14:10:56.583Z,11.07
2018-11-13T14:13:25.852Z,10.20
2018-11-13T14:15:55.157Z,10.20
2018-11-13T14:18:24.459Z,10.17
2018-11-13T14:20:53.830Z,10.17
2018-11-13T14:23:23.080Z,10.37
2018-11-13T14:25:52.370Z,9.77
2018-11-13T14:28:21.642Z,9.80
2018-11-13T14:30:50.903Z,9.93
2018-11-13T14:33:20.253Z,9.50
2018-11-13T14:35:49.744Z,10.63
2018-11-13T14:38:19.025Z,9.27
2018-11-13T14:40:49.326Z,12.10
2018-11-13T14:43:18.619Z,10.33
2018-11-13T14:45:47.898Z,9.70
2018-11-13T14:48:17.201Z,11.10
2018-11-13T14:50:46.528Z,11.10
2018-11-13T14:53:15.913Z,11.27
2018-11-13T14:55:46.714Z,11.10
2018-11-13T14:58:16.972Z,10.70
2018-11-13T15:00:46.315Z,10.77
2018-11-13T15:03:17.368Z,9.63
2018-11-13T15:05:46.674Z,10.43
2018-11-13T15:08:15.971Z,11.27
2018-11-13T15:10:49.529Z,10.37
2018-11-13T15:13:19.782Z,11.93
2018-11-13T15:15:49.130Z,10.97
2018-11-13T15:18:18.495Z,10.40
2018-11-13T15:20:48.743Z,11.00
2018-11-13T15:23:18.155Z,11.97
2018-11-13T15:25:47.497Z,11.30
2018-11-13T15:28:16.921Z,12.07
2018-11-13T15:30:48.858Z,11.53
2018-11-13T15:33:20.659Z,11.47
2018-11-13T15:35:49.996Z,11.00
2018-11-13T15:38:19.406Z,11.40
2018-11-13T15:40:48.836Z,11.80
2018-11-13T15:43:18.327Z,11.37
2018-11-13T15:45:48.063Z,11.60
2018-11-13T15:48:17.392Z,12.27
2018-11-13T15:50:46.790Z,13.10
2018-11-13T15:53:16.065Z,12.97
2018-11-13T15:55:45.438Z,12.27
2018-11-13T15:58:14.751Z,14.70
2018-11-13T16:00:44.322Z,16.17
2018-11-13T16:03:20.454Z,18.80
2018-11-13T16:05:51.470Z,14.83
2018-11-13T16:08:21.067Z,14.17
2018-11-13T16:10:50.602Z,14.93
2018-11-13T16:13:20.093Z,14.93
2018-11-13T16:15:49.440Z,15.17
2018-11-13T16:18:21.934Z,15.53
2018-11-13T16:20:51.840Z,15.50
2018-11-13T16:23:21.394Z,16.43
2018-11-13T16:25:50.938Z,15.27
2018-11-13T16:28:20.499Z,16.57
2018-11-13T16:30:50.531Z,16.40
2018-11-13T16:33:20.461Z,16.00
2018-11-13T16:35:50.395Z,16.60
2018-11-13T16:38:20.474Z,17.20
2018-11-13T16:40:50.379Z,17.10
2018-11-13T16:43:20.338Z,16.37
2018-11-13T16:45:50.432Z,15.50
2018-11-13T16:48:20.641Z,17.03
2018-11-13T16:50:50.589Z,18.37
2018-11-13T16:53:20.682Z,16.63
2018-11-13T16:55:55.710Z,17.23
2018-11-13T16:58:25.923Z,17.93
2018-11-13T17:00:56.076Z,18.20
2018-11-13T17:03:26.790Z,17.10
2018-11-13T17:05:58.295Z,16.87
2018-11-13T17:08:28.360Z,18.67
2018-11-13T17:10:58.515Z,17.17
2018-11-13T17:13:28.653Z,17.97
2018-11-13T17:15:58.720Z,18.23
2018-11-13T17:18:28.862Z,17.60
2018-11-13T17:20:58.931Z,17.23
2018-11-13T17:23:29.227Z,17.37
2018-11-13T17:25:59.364Z,17.97
2018-11-13T17:28:29.463Z,19.43
2018-11-13T17:30:59.569Z,18.93
2018-11-13T17:33:29.679Z,17.30
2018-11-13T17:35:59.711Z,19.20
2018-11-13T17:38:29.792Z,18.40
2018-11-13T17:40:59.874Z,18.30
2018-11-13T17:43:29.976Z,18.13
2018-11-13T17:46:00.078Z,18.23
2018-11-13T17:48:30.327Z,19.73
2018-11-13T17:51:00.363Z,18.93
2018-11-13T17:53:31.389Z,19.57
2018-11-13T17:56:01.305Z,18.60
2018-11-13T17:58:31.811Z,18.50
2018-11-13T18:01:02.008Z,19.17
2018-11-13T18:03:32.191Z,18.53
2018-11-13T18:06:03.210Z,18.23
2018-11-13T18:08:33.286Z,18.60
2018-11-13T18:11:04.239Z,17.90
2018-11-13T18:13:34.420Z,19.50
2018-11-13T18:16:06.753Z,21.67
2018-11-13T18:18:37.862Z,19.60
2018-11-13T18:21:08.844Z,18.13
2018-11-13T18:23:39.114Z,20.23
2018-11-13T18:26:09.838Z,20.40
2018-11-13T18:28:40.915Z,19.70
2018-11-13T18:31:11.965Z,20.33
2018-11-13T18:33:44.930Z,20.23
2018-11-13T18:36:15.082Z,20.93
2018-11-13T18:38:46.410Z,20.43
2018-11-13T18:41:16.379Z,20.30
2018-11-13T18:43:46.521Z,20.27
2018-11-13T18:46:17.411Z,19.83
2018-11-13T18:48:47.585Z,20.53
2018-11-13T18:51:17.789Z,21.07
2018-11-13T18:53:48.709Z,21.13
2018-11-13T18:56:18.848Z,21.00
2018-11-13T18:58:48.984Z,18.90
2018-11-13T19:01:22.140Z,20.80
2018-11-13T19:03:52.275Z,20.43
2018-11-13T19:06:22.386Z,20.17
2018-11-13T19:08:52.588Z,21.27
2018-11-13T19:11:22.918Z,21.17
2018-11-13T19:13:53.076Z,20.90
2018-11-13T19:16:23.187Z,20.03
2018-11-13T19:19:01.679Z,20.73
2018-11-13T19:21:31.889Z,21.93
2018-11-13T19:24:02.976Z,19.77
2018-11-13T19:26:33.961Z,20.40
2018-11-13T19:29:05.024Z,19.77
2018-11-13T19:31:35.820Z,20.27
2018-11-13T19:34:06.021Z,25.90
2018-11-13T19:36:37.341Z,31.57
2018-11-13T19:39:13.959Z,29.60
2018-11-13T19:41:45.103Z,29.37
2018-11-13T19:44:16.781Z,26.87
2018-11-13T19:46:48.920Z,26.30
2018-11-13T19:49:19.130Z,26.83
2018-11-13T19:51:49.324Z,25.80
2018-11-13T19:54:19.580Z,26.30
2018-11-13T19:56:50.335Z,25.90
2018-11-13T19:59:22.033Z,25.73
2018-11-13T20:01:52.811Z,24.07
2018-11-13T20:04:23.014Z,24.03
2018-11-13T20:06:53.066Z,25.77
2018-11-13T20:09:23.155Z,24.30
2018-11-13T20:11:53.344Z,24.27
2018-11-13T20:14:23.402Z,25.77
2018-11-13T20:16:53.459Z,24.13
2018-11-13T20:19:23.597Z,22.40
2018-11-13T20:21:53.651Z,24.57
2018-11-13T20:24:24.298Z,23.93
2018-11-13T20:26:56.238Z,22.00
2018-11-13T20:29:26.363Z,23.47
2018-11-13T20:31:57.468Z,23.00
2018-11-13T20:34:28.610Z,22.87
2018-11-13T20:36:58.759Z,23.10
2018-11-13T20:39:29.388Z,22.13
2018-11-13T20:41:59.506Z,22.23
2018-11-13T20:44:29.615Z,21.73
2018-11-13T20:46:59.779Z,21.97
2018-11-13T20:49:29.891Z,21.67
2018-11-13T20:52:00.036Z,22.10
2018-11-13T20:54:32.292Z,22.77
2018-11-13T20:57:02.465Z,22.97
2018-11-13T20:59:32.564Z,21.67
2018-11-13T21:02:02.809Z,21.00
2018-11-13T21:04:33.726Z,21.33
2018-11-13T21:07:04.787Z,20.30
2018-11-13T21:09:34.917Z,22.40
2018-11-13T21:12:05.023Z,22.43
2018-11-13T21:14:35.179Z,21.07
2018-11-13T21:17:05.615Z,20.60
2018-11-13T21:19:35.468Z,21.00
2018-11-13T21:22:05.552Z,21.63
2018-11-13T21:24:35.630Z,21.60
2018-11-13T21:27:05.808Z,21.17
2018-11-13T21:29:35.865Z,20.33
2018-11-13T21:32:06.034Z,20.70
2018-11-13T21:34:36.123Z,20.00
2018-11-13T21:37:06.798Z,20.40
2018-11-13T21:39:36.805Z,20.90
2018-11-13T21:42:08.167Z,20.07
2018-11-13T21:44:40.513Z,20.80
2018-11-13T21:47:10.619Z,19.93
2018-11-13T21:49:42.940Z,19.80
2018-11-13T21:52:15.673Z,18.37
2018-11-13T21:54:46.276Z,20.00
2018-11-13T21:57:16.359Z,18.93
2018-11-13T21:59:46.482Z,17.83
2018-11-13T22:02:16.579Z,18.13
2018-11-13T22:04:48.027Z,18.47
2018-11-13T22:07:18.076Z,17.73
2018-11-13T22:09:48.112Z,18.10
2018-11-13T22:12:18.144Z,17.33
2018-11-13T22:14:48.211Z,17.53
2018-11-13T22:17:18.230Z,16.03
2018-11-13T22:19:48.279Z,18.10
2018-11-13T22:22:18.331Z,17.60
2018-11-13T22:24:47.967Z,17.93
2018-11-13T22:27:17.690Z,17.63
2018-11-13T22:29:47.327Z,18.00
2018-11-13T22:32:16.925Z,17.60
2018-11-13T22:34:46.639Z,18.83
2018-11-13T22:37:15.952Z,17.20
2018-11-13T22:39:46.294Z,18.57
2018-11-13T22:42:15.614Z,17.30
2018-11-13T22:44:44.883Z,17.80
2018-11-13T22:47:14.196Z,17.17
2018-11-13T22:49:43.470Z,17.93
2018-11-13T22:52:12.767Z,17.70
2018-11-13T22:54:42.235Z,18.23
2018-11-13T22:57:11.602Z,17.33
2018-11-13T22:59:40.949Z,16.97
2018-11-13T23:02:10.283Z,17.47
2018-11-13T23:04:39.571Z,17.47
2018-11-13T23:07:08.887Z,18.23
2018-11-13T23:09:38.151Z,16.93
2018-11-13T23:12:07.556Z,16.43
2018-11-13T23:14:36.868Z,17.87
2018-11-13T23:17:06.219Z,17.73
2018-11-13T23:19:35.539Z,17.80
2018-11-13T23:22:05.200Z,17.10
2018-11-13T23:24:34.493Z,17.73
2018-11-13T23:27:03.998Z,17.97
2018-11-13T23:29:33.828Z,15.40
2018-11-13T23:32:03.411Z,17.53
2018-11-13T23:34:32.632Z,16.70
2018-11-13T23:37:01.812Z,16.93
2018-11-13T23:39:31.090Z,17.20
2018-11-13T23:42:00.382Z,17.20
2018-11-13T23:44:30.072Z,16.77
2018-11-13T23:46:58.994Z,17.47
2018-11-13T23:49:28.286Z,16.73
2018-11-13T23:51:57.552Z,17.70
2018-11-13T23:54:26.842Z,16.93
2018-11-13T23:56:56.119Z,17.77
2018-11-13T23:59:25.429Z,18.00
